createdAt,value
2017-05-30T00:01:54.090Z,12.10
2017-05-30T00:04:21.652Z,12.90
2017-05-30T00:06:50.002Z,12.64
2017-05-30T00:09:18.343Z,13.16
2017-05-30T00:11:46.677Z,12.96
2017-05-30T00:14:14.267Z,13.90
2017-05-30T00:16:42.627Z,13.10
2017-05-30T00:19:10.988Z,13.26
2017-05-30T00:21:39.320Z,12.04
2017-05-30T00:24:07.640Z,13.88
2017-05-30T00:26:36.013Z,12.70
2017-05-30T00:29:04.357Z,13.06
2017-05-30T00:31:32.736Z,13.32
2017-05-30T00:34:01.069Z,12.98
2017-05-30T00:36:29.436Z,13.58
2017-05-30T00:38:56.984Z,12.50
2017-05-30T00:41:25.344Z,12.72
2017-05-30T00:43:52.923Z,12.44
2017-05-30T00:46:21.263Z,12.88
2017-05-30T00:48:50.609Z,12.64
2017-05-30T00:51:19.034Z,13.12
2017-05-30T00:53:47.384Z,13.02
2017-05-30T00:56:15.737Z,12.26
2017-05-30T00:58:44.106Z,13.16
2017-05-30T01:01:12.565Z,12.20
2017-05-30T01:03:40.882Z,13.40
2017-05-30T01:06:09.262Z,12.68
2017-05-30T01:08:37.596Z,13.90
2017-05-30T01:11:05.939Z,13.22
2017-05-30T01:13:34.255Z,12.88
2017-05-30T01:16:02.629Z,12.68
2017-05-30T01:18:30.963Z,12.62
2017-05-30T01:20:58.545Z,12.58
2017-05-30T01:23:26.927Z,13.32
2017-05-30T01:25:55.584Z,12.98
2017-05-30T01:28:23.923Z,13.92
2017-05-30T01:30:52.242Z,13.52
2017-05-30T01:33:20.640Z,12.30
2017-05-30T01:35:48.998Z,13.12
2017-05-30T01:38:17.329Z,12.60
2017-05-30T01:40:45.677Z,13.66
2017-05-30T01:43:14.073Z,13.18
2017-05-30T01:45:42.427Z,14.02
2017-05-30T01:48:10.775Z,13.16
2017-05-30T01:50:39.189Z,12.78
2017-05-30T01:53:07.564Z,14.32
2017-05-30T01:55:35.931Z,13.60
2017-05-30T01:58:04.292Z,14.20
2017-05-30T02:00:32.654Z,13.20
2017-05-30T02:03:01.009Z,14.78
2017-05-30T02:05:28.581Z,13.40
2017-05-30T02:07:56.953Z,13.50
2017-05-30T02:10:25.292Z,13.62
2017-05-30T02:12:53.671Z,14.10
2017-05-30T02:15:21.997Z,14.50
2017-05-30T02:17:52.005Z,13.24
2017-05-30T02:26:13.358Z,15.30
2017-05-30T02:32:11.713Z,14.08
2017-05-30T02:41:05.203Z,13.98
2017-05-30T02:43:59.495Z,13.94
2017-05-30T02:46:44.831Z,15.34
2017-05-30T02:52:23.800Z,14.14
2017-05-30T02:58:06.787Z,14.44
2017-05-30T03:00:46.227Z,14.68
2017-05-30T03:12:29.469Z,14.64
2017-05-30T03:15:23.515Z,14.02
2017-05-30T03:23:59.483Z,14.70
2017-05-30T03:29:25.286Z,14.78
2017-05-30T03:32:11.991Z,14.52
2017-05-30T03:40:57.294Z,15.54
2017-05-30T03:43:43.607Z,16.10
2017-05-30T03:52:19.486Z,16.06
2017-05-30T04:00:30.302Z,14.02
2017-05-30T04:11:37.459Z,14.02
2017-05-30T04:14:05.808Z,14.74
2017-05-30T04:16:34.228Z,13.92
2017-05-30T04:19:02.858Z,14.06
2017-05-30T04:21:31.215Z,14.32
2017-05-30T04:23:59.524Z,13.48
2017-05-30T04:26:27.879Z,15.42
2017-05-30T04:28:56.184Z,14.18
2017-05-30T04:31:24.529Z,15.54
2017-05-30T04:33:52.892Z,14.00
2017-05-30T04:36:21.270Z,14.10
2017-05-30T04:38:49.650Z,13.66
2017-05-30T04:41:17.252Z,15.96
2017-05-30T04:43:45.654Z,13.94
2017-05-30T04:46:14.000Z,14.20
2017-05-30T04:48:42.505Z,13.90
2017-05-30T04:51:11.769Z,14.22
2017-05-30T04:53:40.157Z,13.56
2017-05-30T04:56:08.510Z,14.44
2017-05-30T04:58:36.066Z,14.34
2017-05-30T05:01:04.439Z,15.40
2017-05-30T05:03:32.838Z,12.78
2017-05-30T05:06:01.212Z,13.54
2017-05-30T05:08:29.545Z,13.98
2017-05-30T05:10:57.879Z,12.90
2017-05-30T05:13:26.201Z,14.32
2017-05-30T05:15:56.124Z,14.02
2017-05-30T05:18:24.446Z,14.20
2017-05-30T05:20:52.799Z,13.72
2017-05-30T05:23:21.122Z,14.72
2017-05-30T05:25:52.393Z,14.10
2017-05-30T05:28:22.652Z,13.64
2017-05-30T05:30:51.019Z,14.72
2017-05-30T05:33:18.630Z,13.92
2017-05-30T05:35:47.011Z,14.16
2017-05-30T05:38:15.367Z,14.44
2017-05-30T05:40:43.722Z,13.10
2017-05-30T05:43:12.050Z,13.12
2017-05-30T05:45:40.682Z,13.24
2017-05-30T05:48:09.020Z,13.48
2017-05-30T05:50:37.366Z,12.48
2017-05-30T05:53:05.776Z,13.68
2017-05-30T05:55:34.098Z,13.64
2017-05-30T05:58:02.426Z,12.94
2017-05-30T06:00:30.805Z,12.86
2017-05-30T06:02:59.159Z,12.24
2017-05-30T06:05:27.478Z,12.20
2017-05-30T06:07:55.837Z,11.36
2017-05-30T06:10:24.162Z,12.46
2017-05-30T06:12:52.556Z,13.56
2017-05-30T06:15:21.105Z,12.68
2017-05-30T06:17:49.482Z,12.24
2017-05-30T06:20:17.824Z,12.08
2017-05-30T06:22:46.191Z,11.32
2017-05-30T06:25:14.538Z,12.06
2017-05-30T06:27:43.760Z,11.66
2017-05-30T06:30:12.083Z,10.00
2017-05-30T06:32:40.412Z,12.20
2017-05-30T06:35:07.954Z,10.48
2017-05-30T06:37:36.300Z,10.66
2017-05-30T06:40:03.867Z,11.58
2017-05-30T06:42:32.210Z,10.32
2017-05-30T06:45:00.570Z,10.52
2017-05-30T06:47:28.930Z,11.66
2017-05-30T06:49:57.256Z,11.74
2017-05-30T06:52:25.597Z,11.40
2017-05-30T06:54:53.944Z,9.88
2017-05-30T06:57:22.305Z,10.90
2017-05-30T06:59:50.641Z,10.26
2017-05-30T07:02:18.959Z,10.10
2017-05-30T07:04:47.299Z,10.88
2017-05-30T07:07:15.669Z,10.74
2017-05-30T07:09:44.093Z,10.48
2017-05-30T07:12:12.439Z,10.70
2017-05-30T07:14:40.820Z,9.90
2017-05-30T07:17:09.219Z,10.52
2017-05-30T07:19:37.625Z,10.36
2017-05-30T07:22:05.181Z,10.50
2017-05-30T07:24:33.517Z,10.78
2017-05-30T07:27:01.841Z,10.76
2017-05-30T07:29:30.177Z,10.34
2017-05-30T07:31:58.543Z,10.18
2017-05-30T07:34:26.145Z,9.52
2017-05-30T07:36:54.469Z,8.98
2017-05-30T07:39:22.926Z,9.48
2017-05-30T07:41:51.338Z,8.34
2017-05-30T07:44:19.697Z,7.66
2017-05-30T07:46:48.044Z,7.56
2017-05-30T07:49:16.385Z,8.56
2017-05-30T07:51:44.694Z,8.46
2017-05-30T07:54:13.053Z,7.56
2017-05-30T07:56:41.415Z,7.14
2017-05-30T07:59:09.781Z,7.32
2017-05-30T08:01:38.091Z,8.08
2017-05-30T08:04:06.481Z,7.82
2017-05-30T08:06:34.824Z,7.94
2017-05-30T08:09:03.182Z,7.76
2017-05-30T08:11:31.561Z,6.60
2017-05-30T08:13:59.906Z,5.90
2017-05-30T08:16:28.238Z,6.32
2017-05-30T08:18:56.574Z,6.20
2017-05-30T08:21:24.892Z,6.12
2017-05-30T08:23:53.246Z,6.86
2017-05-30T08:26:21.576Z,6.32
2017-05-30T08:28:51.404Z,7.12
2017-05-30T08:31:19.735Z,6.86
2017-05-30T08:33:48.091Z,6.76
2017-05-30T08:36:16.437Z,7.26
2017-05-30T08:38:44.782Z,7.48
2017-05-30T08:41:13.124Z,6.86
2017-05-30T08:43:40.687Z,7.88
2017-05-30T08:46:09.039Z,6.90
2017-05-30T08:48:38.203Z,7.44
2017-05-30T08:51:05.790Z,8.94
2017-05-30T08:53:34.097Z,6.42
2017-05-30T08:56:02.489Z,6.70
2017-05-30T08:58:30.814Z,6.82
2017-05-30T09:00:58.401Z,7.12
2017-05-30T09:03:26.847Z,6.68
2017-05-30T09:05:55.197Z,5.80
2017-05-30T09:08:23.534Z,7.90
2017-05-30T09:10:51.907Z,6.58
2017-05-30T09:13:20.273Z,5.92
2017-05-30T09:15:48.681Z,5.78
2017-05-30T09:18:17.018Z,4.98
2017-05-30T09:20:45.364Z,5.84
2017-05-30T09:23:13.670Z,5.68
2017-05-30T09:25:42.013Z,5.64
2017-05-30T09:28:10.350Z,5.82
2017-05-30T09:30:38.685Z,5.36
2017-05-30T09:33:06.241Z,6.24
2017-05-30T09:35:34.660Z,5.10
2017-05-30T09:38:03.005Z,4.28
2017-05-30T09:40:31.384Z,5.46
2017-05-30T09:42:59.744Z,4.90
2017-05-30T09:45:28.103Z,4.66
2017-05-30T09:47:56.453Z,4.66
2017-05-30T09:50:24.812Z,4.78
2017-05-30T09:52:52.464Z,5.04
2017-05-30T09:55:20.811Z,4.00
2017-05-30T09:57:49.134Z,5.22
2017-05-30T10:00:17.931Z,4.68
2017-05-30T10:02:46.854Z,4.40
2017-05-30T10:05:15.168Z,4.28
2017-05-30T10:07:43.516Z,4.58
2017-05-30T10:10:11.922Z,4.56
2017-05-30T10:12:40.656Z,4.20
2017-05-30T10:15:09.818Z,4.52
2017-05-30T10:17:38.381Z,4.88
2017-05-30T10:20:06.704Z,3.94
2017-05-30T10:22:35.029Z,4.40
2017-05-30T10:25:03.442Z,4.08
2017-05-30T10:27:31.794Z,3.50
2017-05-30T10:29:59.350Z,4.74
2017-05-30T10:32:27.732Z,4.08
2017-05-30T10:34:56.067Z,4.62
2017-05-30T10:37:24.422Z,4.18
2017-05-30T10:39:52.804Z,4.10
2017-05-30T10:42:21.203Z,3.94
2017-05-30T10:44:49.542Z,3.98
2017-05-30T10:47:17.882Z,4.12
2017-05-30T10:49:45.440Z,4.28
2017-05-30T10:52:13.782Z,3.62
2017-05-30T10:54:42.119Z,4.56
2017-05-30T10:57:10.470Z,3.58
2017-05-30T10:59:38.792Z,4.12
2017-05-30T11:02:07.146Z,3.70
2017-05-30T11:04:35.502Z,3.94
2017-05-30T11:07:03.873Z,4.60
2017-05-30T11:09:31.489Z,3.86
2017-05-30T11:11:59.075Z,2.84
2017-05-30T11:14:27.455Z,2.76
2017-05-30T11:16:55.829Z,3.10
2017-05-30T11:19:24.162Z,2.98
2017-05-30T11:21:52.499Z,3.60
2017-05-30T11:24:20.817Z,3.14
2017-05-30T11:26:49.177Z,4.24
2017-05-30T11:29:17.523Z,3.34
2017-05-30T11:31:45.885Z,18.52
2017-05-30T11:34:14.321Z,27.46
2017-05-30T11:36:42.644Z,55.04
2017-05-30T11:39:12.047Z,23.46
2017-05-30T11:41:56.772Z,77.64
2017-05-30T11:44:25.112Z,11.10
2017-05-30T11:46:53.420Z,3.06
2017-05-30T11:49:21.014Z,15.06
2017-05-30T11:51:49.349Z,7.66
2017-05-30T11:54:17.704Z,11.12
2017-05-30T11:56:46.006Z,7.14
2017-05-30T11:59:14.364Z,12.06
2017-05-30T12:01:42.707Z,19.94
2017-05-30T12:04:11.061Z,21.98
2017-05-30T12:06:39.366Z,9.34
2017-05-30T12:09:07.743Z,16.66
2017-05-30T12:11:35.329Z,11.92
2017-05-30T12:14:03.686Z,7.50
2017-05-30T12:16:32.029Z,5.12
2017-05-30T12:19:00.374Z,4.02
2017-05-30T12:21:28.697Z,3.04
2017-05-30T12:23:56.278Z,5.68
2017-05-30T12:26:24.618Z,4.80
2017-05-30T12:28:52.973Z,4.12
2017-05-30T12:31:20.532Z,3.62
2017-05-30T12:33:48.127Z,9.08
2017-05-30T12:36:16.428Z,4.32
2017-05-30T12:38:44.770Z,3.50
2017-05-30T12:41:12.323Z,3.26
2017-05-30T12:43:40.670Z,3.20
2017-05-30T12:46:09.000Z,2.16
2017-05-30T12:48:37.339Z,2.60
2017-05-30T12:51:05.657Z,2.52
2017-05-30T12:53:34.010Z,2.10
2017-05-30T12:56:02.352Z,2.48
2017-05-30T12:58:29.909Z,2.16
2017-05-30T13:00:58.259Z,2.68
2017-05-30T13:03:26.588Z,2.02
2017-05-30T13:05:54.944Z,2.44
2017-05-30T13:08:23.258Z,2.68
2017-05-30T13:10:51.581Z,2.52
2017-05-30T13:13:19.936Z,2.28
2017-05-30T13:15:48.289Z,3.06
2017-05-30T13:18:16.615Z,2.52
2017-05-30T13:20:44.990Z,2.68
2017-05-30T13:23:13.298Z,2.86
2017-05-30T13:25:41.686Z,2.68
2017-05-30T13:28:09.986Z,3.04
2017-05-30T13:30:38.351Z,2.90
2017-05-30T13:33:06.687Z,3.06
2017-05-30T13:35:35.506Z,2.48
2017-05-30T13:38:05.018Z,2.98
2017-05-30T13:40:34.334Z,2.90
2017-05-30T13:43:03.541Z,2.50
2017-05-30T13:45:32.090Z,2.68
2017-05-30T13:48:00.714Z,3.14
2017-05-30T13:50:28.342Z,2.78
2017-05-30T13:52:57.142Z,3.14
2017-05-30T13:55:26.216Z,3.22
2017-05-30T13:57:54.792Z,2.82
2017-05-30T14:00:23.155Z,2.98
2017-05-30T14:02:52.367Z,2.30
2017-05-30T14:05:21.563Z,2.58
2017-05-30T14:07:50.852Z,2.90
2017-05-30T14:10:20.116Z,2.60
2017-05-30T14:12:49.363Z,3.02
2017-05-30T14:15:17.869Z,2.66
2017-05-30T14:17:46.206Z,2.64
2017-05-30T14:20:14.585Z,2.66
2017-05-30T14:22:42.902Z,3.14
2017-05-30T14:25:11.311Z,3.04
2017-05-30T14:27:39.947Z,2.66
2017-05-30T14:30:08.515Z,2.98
2017-05-30T14:32:36.876Z,2.58
2017-05-30T14:35:05.265Z,2.60
2017-05-30T14:37:33.617Z,2.30
2017-05-30T14:40:01.940Z,2.50
2017-05-30T14:42:30.369Z,2.00
2017-05-30T14:44:58.702Z,2.14
2017-05-30T14:47:27.089Z,2.30
2017-05-30T14:49:55.407Z,2.38
2017-05-30T14:52:23.764Z,2.70
2017-05-30T14:54:52.078Z,2.50
2017-05-30T14:57:21.028Z,2.10
2017-05-30T14:59:49.362Z,2.46
2017-05-30T15:02:17.706Z,2.78
2017-05-30T15:04:46.017Z,2.30
2017-05-30T15:07:14.431Z,2.68
2017-05-30T15:09:42.797Z,2.38
2017-05-30T15:12:11.187Z,2.34
2017-05-30T15:14:39.536Z,2.34
2017-05-30T15:17:07.874Z,2.60
2017-05-30T15:19:36.234Z,2.84
2017-05-30T15:22:04.609Z,2.50
2017-05-30T15:24:32.951Z,2.40
2017-05-30T15:27:01.308Z,2.90
2017-05-30T15:29:29.659Z,2.78
2017-05-30T15:31:57.248Z,2.60
2017-05-30T15:34:25.804Z,2.46
2017-05-30T15:36:54.165Z,2.58
2017-05-30T15:39:21.737Z,3.38
2017-05-30T15:41:50.102Z,2.72
2017-05-30T15:44:18.426Z,3.36
2017-05-30T15:46:47.065Z,3.32
2017-05-30T15:49:14.633Z,3.50
2017-05-30T15:51:42.201Z,3.36
2017-05-30T15:54:10.556Z,3.32
2017-05-30T15:56:38.884Z,2.84
2017-05-30T15:59:07.215Z,3.58
2017-05-30T16:01:35.551Z,3.60
2017-05-30T16:04:03.951Z,3.56
2017-05-30T16:06:32.354Z,3.20
2017-05-30T16:09:00.776Z,3.16
2017-05-30T16:11:29.157Z,3.00
2017-05-30T16:13:57.533Z,3.48
2017-05-30T16:16:25.847Z,3.12
2017-05-30T16:18:54.189Z,3.14
2017-05-30T16:21:22.509Z,4.52
2017-05-30T16:23:50.875Z,4.88
2017-05-30T16:26:19.207Z,3.88
2017-05-30T16:28:47.599Z,4.60
2017-05-30T16:31:15.947Z,3.96
2017-05-30T16:33:44.304Z,4.30
2017-05-30T16:36:13.199Z,3.98
2017-05-30T16:38:41.573Z,3.52
2017-05-30T16:41:09.892Z,3.74
2017-05-30T16:43:38.262Z,4.78
2017-05-30T16:46:06.569Z,4.78
2017-05-30T16:48:34.985Z,4.88
2017-05-30T16:51:03.297Z,3.90
2017-05-30T16:53:31.667Z,4.72
2017-05-30T16:56:00.025Z,4.72
2017-05-30T16:58:28.366Z,5.18
2017-05-30T17:00:56.713Z,5.36
2017-05-30T17:03:25.071Z,4.72
2017-05-30T17:05:53.394Z,4.94
2017-05-30T17:08:22.082Z,5.32
2017-05-30T17:10:50.430Z,5.84
2017-05-30T17:13:18.015Z,6.04
2017-05-30T17:15:48.278Z,6.20
2017-05-30T17:18:16.662Z,5.36
2017-05-30T17:20:44.949Z,6.28
2017-05-30T17:23:14.025Z,12.62
2017-05-30T17:25:43.219Z,6.16
2017-05-30T17:28:11.645Z,3.88
2017-05-30T17:30:40.044Z,6.56
2017-05-30T17:33:08.391Z,9.46
2017-05-30T17:35:36.771Z,6.44
2017-05-30T17:38:05.142Z,6.28
2017-05-30T17:40:32.778Z,5.46
2017-05-30T17:43:00.394Z,7.12
2017-05-30T17:45:28.829Z,6.24
2017-05-30T17:47:58.502Z,5.80
2017-05-30T17:50:29.589Z,6.18
2017-05-30T17:52:58.195Z,6.02
2017-05-30T17:55:26.706Z,5.52
2017-05-30T17:57:55.088Z,5.50
2017-05-30T18:02:56.853Z,5.48
2017-05-30T18:05:25.246Z,5.74
2017-05-30T18:07:53.683Z,5.26
2017-05-30T18:10:22.076Z,6.06
2017-05-30T18:12:50.742Z,6.36
2017-05-30T18:15:19.132Z,6.54
2017-05-30T18:17:47.494Z,6.62
2017-05-30T18:20:15.896Z,6.10
2017-05-30T18:22:44.264Z,5.88
2017-05-30T18:25:12.666Z,6.90
2017-05-30T18:27:41.014Z,6.20
2017-05-30T18:30:09.402Z,6.28
2017-05-30T18:32:37.894Z,6.94
2017-05-30T18:35:06.693Z,7.28
2017-05-30T18:37:35.109Z,7.76
2017-05-30T18:40:03.806Z,8.08
2017-05-30T18:42:31.400Z,8.66
2017-05-30T18:44:59.772Z,7.24
2017-05-30T18:47:28.196Z,9.90
2017-05-30T18:49:56.555Z,7.94
2017-05-30T18:52:24.950Z,7.40
2017-05-30T18:54:52.519Z,7.22
2017-05-30T18:57:20.932Z,9.04
2017-05-30T18:59:48.937Z,7.90
2017-05-30T19:02:17.687Z,8.56
2017-05-30T19:19:15.156Z,7.16
2017-05-30T19:21:49.967Z,8.40
2017-05-30T19:24:18.402Z,7.46
2017-05-30T19:29:24.780Z,6.68
2017-05-30T19:31:55.457Z,7.64
2017-05-30T19:34:29.512Z,6.38
2017-05-30T19:45:49.423Z,6.40
2017-05-30T19:48:42.885Z,10.12
2017-05-30T19:51:21.590Z,7.78
2017-05-30T19:53:50.009Z,7.68
2017-05-30T19:56:18.416Z,7.34
2017-05-30T19:58:47.196Z,7.54
2017-05-30T20:01:15.637Z,7.72
2017-05-30T20:03:44.012Z,7.96
2017-05-30T20:06:12.717Z,7.32
2017-05-30T20:08:41.137Z,7.02
2017-05-30T20:11:09.496Z,6.70
2017-05-30T20:13:38.293Z,7.52
2017-05-30T20:16:07.150Z,7.34
2017-05-30T20:18:35.891Z,7.64
2017-05-30T20:21:03.912Z,6.20
2017-05-30T20:23:31.533Z,7.28
2017-05-30T20:25:59.983Z,7.76
2017-05-30T20:28:27.833Z,7.08
2017-05-30T20:33:36.185Z,7.52
2017-05-30T20:36:13.801Z,6.44
2017-05-30T20:38:42.490Z,6.74
2017-05-30T20:41:10.886Z,6.82
2017-05-30T20:43:39.245Z,7.52
2017-05-30T20:46:07.866Z,7.72
2017-05-30T20:48:36.224Z,6.86
2017-05-30T20:51:04.578Z,7.06
2017-05-30T20:53:32.380Z,7.10
2017-05-30T20:56:00.965Z,7.76
2017-05-30T20:58:29.295Z,6.92
2017-05-30T21:00:57.947Z,8.00
2017-05-30T21:03:26.430Z,7.90
2017-05-30T21:05:54.950Z,8.62
2017-05-30T21:08:24.270Z,7.40
2017-05-30T21:10:52.781Z,8.02
2017-05-30T21:13:21.113Z,8.36
2017-05-30T21:15:49.683Z,6.92
2017-05-30T21:18:18.056Z,8.10
2017-05-30T21:20:46.392Z,9.76
2017-05-30T21:23:15.338Z,13.56
2017-05-30T21:25:44.207Z,10.00
2017-05-30T21:28:12.756Z,10.24
2017-05-30T21:30:41.563Z,9.16
2017-05-30T21:33:09.886Z,10.12
2017-05-30T21:35:38.192Z,9.34
2017-05-30T21:38:06.842Z,9.86
2017-05-30T21:40:34.426Z,9.88
2017-05-30T21:43:02.753Z,9.80
2017-05-30T21:45:31.514Z,10.32
2017-05-30T21:47:59.879Z,11.00
2017-05-30T21:50:28.297Z,9.64
2017-05-30T21:52:57.187Z,10.32
2017-05-30T21:55:25.543Z,10.68
2017-05-30T21:57:53.904Z,9.96
2017-05-30T22:00:22.522Z,9.88
2017-05-30T22:02:51.856Z,10.44
2017-05-30T22:05:19.436Z,11.64
2017-05-30T22:07:48.026Z,12.14
2017-05-30T22:10:16.381Z,10.88
2017-05-30T22:12:44.724Z,11.40
2017-05-30T22:15:13.314Z,10.36
2017-05-30T22:17:42.474Z,10.46
2017-05-30T22:20:10.842Z,11.98
2017-05-30T22:22:39.454Z,11.98
2017-05-30T22:25:07.107Z,11.62
2017-05-30T22:27:35.462Z,12.90
2017-05-30T22:30:04.132Z,11.70
2017-05-30T22:32:32.474Z,12.40
2017-05-30T22:35:00.051Z,11.18
2017-05-30T22:37:28.677Z,12.24
2017-05-30T22:39:57.014Z,11.24
2017-05-30T22:42:25.416Z,12.04
2017-05-30T22:44:54.003Z,11.82
2017-05-30T22:47:22.358Z,11.30
2017-05-30T22:49:50.007Z,12.00
2017-05-30T22:52:18.741Z,11.92
2017-05-30T22:54:47.083Z,12.98
2017-05-30T22:57:15.396Z,13.02
2017-05-30T22:59:44.005Z,12.28
2017-05-30T23:02:12.430Z,12.28
2017-05-30T23:04:40.752Z,11.32
2017-05-30T23:07:09.365Z,12.04
2017-05-30T23:09:36.959Z,11.58
2017-05-30T23:12:05.324Z,11.18
2017-05-30T23:14:34.075Z,9.70
2017-05-30T23:17:02.413Z,9.38
2017-05-30T23:19:30.795Z,9.72
2017-05-30T23:21:59.589Z,10.12
2017-05-30T23:24:28.088Z,9.00
2017-05-30T23:26:56.524Z,10.48
2017-05-30T23:29:25.074Z,11.16
2017-05-30T23:31:53.485Z,11.00
2017-05-30T23:34:21.825Z,11.96
2017-05-30T23:36:50.588Z,10.96
2017-05-30T23:39:18.946Z,11.62
2017-05-30T23:41:47.298Z,10.86
2017-05-30T23:44:16.029Z,11.56
2017-05-30T23:46:44.416Z,11.02
2017-05-30T23:49:12.027Z,12.38
2017-05-30T23:51:40.745Z,12.32
2017-05-30T23:54:09.098Z,11.94
2017-05-30T23:56:37.437Z,12.38
2017-05-30T23:59:06.032Z,11.58
